sensor_id;sensor_type;location;lat;lon;timestamp;pressure;altitude;pressure_sealevel;temperature;humidity
13719;BME280;6931;51.100;17.068;2024-02-21T00:02:21;100743.53;;;9.30;76.51
13719;BME280;6931;51.100;17.068;2024-02-21T00:04:48;100726.50;;;9.35;75.70
13719;BME280;6931;51.100;17.068;2024-02-21T00:07:14;100729.47;;;8.93;77.45
13719;BME280;6931;51.100;17.068;2024-02-21T00:09:41;100750.31;;;9.06;77.37
13719;BME280;6931;51.100;17.068;2024-02-21T00:12:08;100741.56;;;8.78;77.50
13719;BME280;6931;51.100;17.068;2024-02-21T00:14:34;100739.34;;;8.90;77.27
13719;BME280;6931;51.100;17.068;2024-02-21T00:17:01;100748.47;;;8.65;78.02
13719;BME280;6931;51.100;17.068;2024-02-21T00:19:28;100744.22;;;8.71;78.64
13719;BME280;6931;51.100;17.068;2024-02-21T00:21:55;100652.22;;;8.50;77.28
13719;BME280;6931;51.100;17.068;2024-02-21T00:24:21;100732.59;;;8.88;78.39
13719;BME280;6931;51.100;17.068;2024-02-21T00:26:48;100739.41;;;8.94;78.53
13719;BME280;6931;51.100;17.068;2024-02-21T00:29:14;100738.97;;;8.92;77.65
13719;BME280;6931;51.100;17.068;2024-02-21T00:31:41;100732.69;;;8.95;78.06
13719;BME280;6931;51.100;17.068;2024-02-21T00:34:08;100736.56;;;8.64;78.90
13719;BME280;6931;51.100;17.068;2024-02-21T00:36:34;100726.25;;;9.17;77.48
13719;BME280;6931;51.100;17.068;2024-02-21T00:39:01;100701.03;;;8.77;77.58
13719;BME280;6931;51.100;17.068;2024-02-21T00:41:28;100716.09;;;9.28;77.58
13719;BME280;6931;51.100;17.068;2024-02-21T00:43:54;100710.44;;;9.21;77.23
13719;BME280;6931;51.100;17.068;2024-02-21T00:46:22;100720.66;;;9.13;77.66
13719;BME280;6931;51.100;17.068;2024-02-21T00:48:48;100696.41;;;8.84;77.67
13719;BME280;6931;51.100;17.068;2024-02-21T00:51:16;100713.63;;;8.93;78.48
13719;BME280;6931;51.100;17.068;2024-02-21T00:53:43;100704.03;;;8.65;79.29
13719;BME280;6931;51.100;17.068;2024-02-21T00:56:09;100705.84;;;8.80;78.54
13719;BME280;6931;51.100;17.068;2024-02-21T00:58:36;100700.78;;;8.85;78.06
13719;BME280;6931;51.100;17.068;2024-02-21T01:01:03;100702.81;;;9.18;77.31
13719;BME280;6931;51.100;17.068;2024-02-21T01:03:29;100687.47;;;8.72;77.89
13719;BME280;6931;51.100;17.068;2024-02-21T01:05:56;100703.44;;;8.78;78.23
13719;BME280;6931;51.100;17.068;2024-02-21T01:08:22;100692.41;;;9.11;77.51
13719;BME280;6931;51.100;17.068;2024-02-21T01:10:49;100681.91;;;8.72;78.15
13719;BME280;6931;51.100;17.068;2024-02-21T01:13:16;100693.47;;;9.30;76.71
13719;BME280;6931;51.100;17.068;2024-02-21T01:15:42;100692.94;;;9.50;76.21
13719;BME280;6931;51.100;17.068;2024-02-21T01:18:09;100703.28;;;8.68;78.21
13719;BME280;6931;51.100;17.068;2024-02-21T01:20:35;100684.72;;;9.61;75.83
13719;BME280;6931;51.100;17.068;2024-02-21T01:23:02;100678.22;;;9.20;76.42
13719;BME280;6931;51.100;17.068;2024-02-21T01:25:29;100684.56;;;9.17;77.37
13719;BME280;6931;51.100;17.068;2024-02-21T01:27:55;100680.06;;;8.79;78.45
13719;BME280;6931;51.100;17.068;2024-02-21T01:30:22;100671.50;;;8.91;78.21
13719;BME280;6931;51.100;17.068;2024-02-21T01:32:48;100683.56;;;9.32;76.76
13719;BME280;6931;51.100;17.068;2024-02-21T01:35:15;100676.34;;;9.27;77.61
13719;BME280;6931;51.100;17.068;2024-02-21T01:37:42;100669.50;;;8.66;79.97
13719;BME280;6931;51.100;17.068;2024-02-21T01:40:09;100673.25;;;9.03;79.58
13719;BME280;6931;51.100;17.068;2024-02-21T01:42:39;100668.94;;;9.39;77.94
13719;BME280;6931;51.100;17.068;2024-02-21T01:45:07;100663.63;;;9.26;80.05
13719;BME280;6931;51.100;17.068;2024-02-21T01:47:34;100681.41;;;9.18;79.72
13719;BME280;6931;51.100;17.068;2024-02-21T01:50:02;100677.56;;;8.71;81.64
13719;BME280;6931;51.100;17.068;2024-02-21T01:52:30;100669.28;;;9.04;80.86
13719;BME280;6931;51.100;17.068;2024-02-21T01:54:57;100638.88;;;8.88;81.38
13719;BME280;6931;51.100;17.068;2024-02-21T01:57:24;100654.56;;;8.74;83.12
13719;BME280;6931;51.100;17.068;2024-02-21T01:59:51;100637.81;;;8.41;83.62
13719;BME280;6931;51.100;17.068;2024-02-21T02:02:18;100649.94;;;8.85;82.68
13719;BME280;6931;51.100;17.068;2024-02-21T02:04:45;100641.31;;;8.90;82.57
13719;BME280;6931;51.100;17.068;2024-02-21T02:07:12;100626.59;;;8.60;83.04
13719;BME280;6931;51.100;17.068;2024-02-21T02:09:39;100633.38;;;8.62;83.49
13719;BME280;6931;51.100;17.068;2024-02-21T02:12:05;100636.78;;;8.52;83.32
13719;BME280;6931;51.100;17.068;2024-02-21T02:14:32;100626.81;;;8.48;83.21
13719;BME280;6931;51.100;17.068;2024-02-21T02:16:59;100622.50;;;8.54;83.37
13719;BME280;6931;51.100;17.068;2024-02-21T02:19:25;100608.34;;;8.59;82.47
13719;BME280;6931;51.100;17.068;2024-02-21T02:22:02;100627.28;;;8.53;83.26
13719;BME280;6931;51.100;17.068;2024-02-21T02:24:33;100622.78;;;8.45;83.55
13719;BME280;6931;51.100;17.068;2024-02-21T02:27:00;100619.84;;;8.61;82.38
13719;BME280;6931;51.100;17.068;2024-02-21T02:29:26;100612.44;;;8.42;83.28
13719;BME280;6931;51.100;17.068;2024-02-21T02:31:53;100610.84;;;8.41;83.54
13719;BME280;6931;51.100;17.068;2024-02-21T02:34:19;100614.94;;;8.51;82.80
13719;BME280;6931;51.100;17.068;2024-02-21T02:36:46;100606.13;;;8.45;82.98
13719;BME280;6931;51.100;17.068;2024-02-21T02:39:15;100591.78;;;8.40;82.64
13719;BME280;6931;51.100;17.068;2024-02-21T02:41:41;100585.97;;;8.48;82.33
13719;BME280;6931;51.100;17.068;2024-02-21T02:44:08;100605.91;;;8.57;82.25
13719;BME280;6931;51.100;17.068;2024-02-21T02:46:34;100604.47;;;8.67;81.57
13719;BME280;6931;51.100;17.068;2024-02-21T02:49:01;100601.44;;;8.49;82.50
13719;BME280;6931;51.100;17.068;2024-02-21T02:51:28;100563.88;;;8.06;82.70
13719;BME280;6931;51.100;17.068;2024-02-21T02:53:54;100601.66;;;8.37;82.43
13719;BME280;6931;51.100;17.068;2024-02-21T02:56:21;100593.44;;;8.44;82.67
13719;BME280;6931;51.100;17.068;2024-02-21T02:58:47;100596.59;;;8.43;82.45
13719;BME280;6931;51.100;17.068;2024-02-21T03:01:14;100600.13;;;8.40;82.38
13719;BME280;6931;51.100;17.068;2024-02-21T03:03:41;100583.47;;;8.40;82.39
13719;BME280;6931;51.100;17.068;2024-02-21T03:06:08;100599.91;;;8.52;82.10
13719;BME280;6931;51.100;17.068;2024-02-21T03:08:34;100594.84;;;8.08;82.82
13719;BME280;6931;51.100;17.068;2024-02-21T03:11:01;100553.28;;;8.12;82.55
13719;BME280;6931;51.100;17.068;2024-02-21T03:13:27;100588.38;;;8.24;83.62
13719;BME280;6931;51.100;17.068;2024-02-21T03:15:54;100587.81;;;8.41;82.22
13719;BME280;6931;51.100;17.068;2024-02-21T03:18:21;100586.28;;;8.43;82.33
13719;BME280;6931;51.100;17.068;2024-02-21T03:20:47;100584.19;;;8.37;81.80
13719;BME280;6931;51.100;17.068;2024-02-21T03:23:14;100452.38;;;7.49;81.69
13719;BME280;6931;51.100;17.068;2024-02-21T03:25:41;100577.53;;;8.41;82.11
13719;BME280;6931;51.100;17.068;2024-02-21T03:28:08;100577.38;;;8.31;82.05
13719;BME280;6931;51.100;17.068;2024-02-21T03:30:34;100578.53;;;8.30;81.86
13719;BME280;6931;51.100;17.068;2024-02-21T03:33:01;100572.13;;;8.26;82.27
13719;BME280;6931;51.100;17.068;2024-02-21T03:35:27;100583.38;;;8.10;82.56
13719;BME280;6931;51.100;17.068;2024-02-21T03:37:54;100581.50;;;8.44;81.54
13719;BME280;6931;51.100;17.068;2024-02-21T03:40:21;100572.31;;;8.13;82.60
13719;BME280;6931;51.100;17.068;2024-02-21T03:42:48;100578.47;;;8.26;82.22
13719;BME280;6931;51.100;17.068;2024-02-21T03:45:14;100572.56;;;8.57;81.18
13719;BME280;6931;51.100;17.068;2024-02-21T03:47:41;100569.91;;;8.12;81.59
13719;BME280;6931;51.100;17.068;2024-02-21T03:50:08;100565.88;;;8.32;81.17
13719;BME280;6931;51.100;17.068;2024-02-21T03:52:35;100538.03;;;8.25;80.88
13719;BME280;6931;51.100;17.068;2024-02-21T03:55:02;100565.50;;;8.34;81.54
13719;BME280;6931;51.100;17.068;2024-02-21T03:57:28;100569.75;;;8.54;80.50
13719;BME280;6931;51.100;17.068;2024-02-21T03:59:55;100565.47;;;8.30;81.33
13719;BME280;6931;51.100;17.068;2024-02-21T04:02:21;100569.88;;;8.35;80.92
13719;BME280;6931;51.100;17.068;2024-02-21T04:04:48;100556.25;;;8.26;80.95
13719;BME280;6931;51.100;17.068;2024-02-21T04:07:15;100567.34;;;8.52;80.05
13719;BME280;6931;51.100;17.068;2024-02-21T04:09:42;100565.88;;;8.58;79.84
13719;BME280;6931;51.100;17.068;2024-02-21T04:12:09;100541.78;;;8.13;80.40
13719;BME280;6931;51.100;17.068;2024-02-21T04:14:36;100552.16;;;8.43;80.29
13719;BME280;6931;51.100;17.068;2024-02-21T04:17:02;100555.69;;;8.40;80.12
13719;BME280;6931;51.100;17.068;2024-02-21T04:19:29;100533.44;;;8.36;79.85
13719;BME280;6931;51.100;17.068;2024-02-21T04:21:57;100528.56;;;8.30;79.86
13719;BME280;6931;51.100;17.068;2024-02-21T04:24:24;100542.97;;;8.39;79.86
13719;BME280;6931;51.100;17.068;2024-02-21T04:26:50;100541.47;;;8.45;79.61
13719;BME280;6931;51.100;17.068;2024-02-21T04:29:17;100532.31;;;8.70;79.19
13719;BME280;6931;51.100;17.068;2024-02-21T04:31:44;100535.28;;;8.55;79.25
13719;BME280;6931;51.100;17.068;2024-02-21T04:34:11;100530.63;;;8.66;78.97
13719;BME280;6931;51.100;17.068;2024-02-21T04:36:37;100450.50;;;8.05;78.71
13719;BME280;6931;51.100;17.068;2024-02-21T04:39:04;100527.69;;;8.52;78.98
13719;BME280;6931;51.100;17.068;2024-02-21T04:41:33;100524.41;;;8.43;79.27
13719;BME280;6931;51.100;17.068;2024-02-21T04:43:59;100519.31;;;8.78;78.24
13719;BME280;6931;51.100;17.068;2024-02-21T04:46:26;100533.16;;;8.45;79.09
13719;BME280;6931;51.100;17.068;2024-02-21T04:48:53;100523.81;;;8.60;78.70
13719;BME280;6931;51.100;17.068;2024-02-21T04:51:19;100525.66;;;8.49;78.64
13719;BME280;6931;51.100;17.068;2024-02-21T04:53:46;100518.75;;;8.65;78.04
13719;BME280;6931;51.100;17.068;2024-02-21T04:56:12;100519.66;;;8.43;78.71
13719;BME280;6931;51.100;17.068;2024-02-21T04:58:39;100524.53;;;8.53;78.47
13719;BME280;6931;51.100;17.068;2024-02-21T05:01:06;100528.22;;;8.35;78.63
13719;BME280;6931;51.100;17.068;2024-02-21T05:03:34;100498.56;;;8.39;78.19
13719;BME280;6931;51.100;17.068;2024-02-21T05:06:01;100502.09;;;8.36;78.19
13719;BME280;6931;51.100;17.068;2024-02-21T05:08:27;100508.72;;;8.28;78.96
13719;BME280;6931;51.100;17.068;2024-02-21T05:10:54;100510.75;;;8.31;78.89
13719;BME280;6931;51.100;17.068;2024-02-21T05:13:21;100512.34;;;8.94;76.75
13719;BME280;6931;51.100;17.068;2024-02-21T05:15:48;100490.44;;;8.56;77.14
13719;BME280;6931;51.100;17.068;2024-02-21T05:18:14;100502.31;;;8.53;76.69
13719;BME280;6931;51.100;17.068;2024-02-21T05:20:41;100505.25;;;8.34;77.69
13719;BME280;6931;51.100;17.068;2024-02-21T05:23:08;100508.00;;;8.34;77.93
13719;BME280;6931;51.100;17.068;2024-02-21T05:25:34;100479.78;;;8.58;77.10
13719;BME280;6931;51.100;17.068;2024-02-21T05:28:01;100503.38;;;9.08;75.53
13719;BME280;6931;51.100;17.068;2024-02-21T05:30:29;100398.03;;;7.96;77.60
13719;BME280;6931;51.100;17.068;2024-02-21T05:32:56;100487.88;;;8.41;78.32
13719;BME280;6931;51.100;17.068;2024-02-21T05:35:27;100476.09;;;8.51;78.30
13719;BME280;6931;51.100;17.068;2024-02-21T05:37:55;100501.56;;;8.89;77.01
13719;BME280;6931;51.100;17.068;2024-02-21T05:40:21;100480.47;;;8.85;76.59
13719;BME280;6931;51.100;17.068;2024-02-21T05:42:48;100498.84;;;8.93;76.57
13719;BME280;6931;51.100;17.068;2024-02-21T05:45:15;100486.88;;;8.89;76.53
13719;BME280;6931;51.100;17.068;2024-02-21T05:47:42;100490.63;;;8.70;77.43
13719;BME280;6931;51.100;17.068;2024-02-21T05:50:09;100485.19;;;8.22;78.80
13719;BME280;6931;51.100;17.068;2024-02-21T05:52:36;100458.13;;;8.41;77.69
13719;BME280;6931;51.100;17.068;2024-02-21T05:55:03;100497.34;;;8.36;78.53
13719;BME280;6931;51.100;17.068;2024-02-21T05:57:30;100481.41;;;8.33;78.64
13719;BME280;6931;51.100;17.068;2024-02-21T05:59:56;100462.69;;;8.00;78.57
13719;BME280;6931;51.100;17.068;2024-02-21T06:02:23;100482.41;;;8.48;78.15
13719;BME280;6931;51.100;17.068;2024-02-21T06:04:49;100484.91;;;8.56;77.31
13719;BME280;6931;51.100;17.068;2024-02-21T06:07:16;100462.25;;;8.25;77.55
13719;BME280;6931;51.100;17.068;2024-02-21T06:09:43;100471.03;;;8.27;77.78
13719;BME280;6931;51.100;17.068;2024-02-21T06:12:10;100487.88;;;8.41;76.82
13719;BME280;6931;51.100;17.068;2024-02-21T06:14:37;100484.34;;;8.77;76.14
13719;BME280;6931;51.100;17.068;2024-02-21T06:17:03;100490.59;;;8.67;76.45
13719;BME280;6931;51.100;17.068;2024-02-21T06:19:30;100468.66;;;8.58;77.07
13719;BME280;6931;51.100;17.068;2024-02-21T06:21:57;100480.16;;;8.57;76.92
13719;BME280;6931;51.100;17.068;2024-02-21T06:24:23;100495.59;;;8.87;76.36
13719;BME280;6931;51.100;17.068;2024-02-21T06:26:50;100473.91;;;8.67;76.15
13719;BME280;6931;51.100;17.068;2024-02-21T06:29:16;100467.19;;;8.68;75.99
13719;BME280;6931;51.100;17.068;2024-02-21T06:31:43;100482.69;;;8.69;76.54
13719;BME280;6931;51.100;17.068;2024-02-21T06:34:09;100479.53;;;8.70;76.22
13719;BME280;6931;51.100;17.068;2024-02-21T06:36:36;100475.09;;;8.66;75.81
13719;BME280;6931;51.100;17.068;2024-02-21T06:39:03;100486.31;;;8.76;75.41
13719;BME280;6931;51.100;17.068;2024-02-21T06:41:34;100482.09;;;8.86;75.19
13719;BME280;6931;51.100;17.068;2024-02-21T06:44:01;100482.50;;;8.88;74.83
13719;BME280;6931;51.100;17.068;2024-02-21T06:46:29;100481.66;;;8.84;75.01
13719;BME280;6931;51.100;17.068;2024-02-21T06:48:56;100491.41;;;9.04;75.05
13719;BME280;6931;51.100;17.068;2024-02-21T06:51:24;100471.94;;;9.04;74.60
13719;BME280;6931;51.100;17.068;2024-02-21T06:53:54;100485.25;;;9.21;74.16
13719;BME280;6931;51.100;17.068;2024-02-21T06:56:22;100471.69;;;8.79;74.49
13719;BME280;6931;51.100;17.068;2024-02-21T06:58:53;100485.72;;;8.90;74.03
13719;BME280;6931;51.100;17.068;2024-02-21T07:01:19;100484.44;;;8.84;75.00
13719;BME280;6931;51.100;17.068;2024-02-21T07:03:46;100485.50;;;10.00;71.08
13719;BME280;6931;51.100;17.068;2024-02-21T07:06:13;100449.19;;;9.28;72.09
13719;BME280;6931;51.100;17.068;2024-02-21T07:08:39;100489.47;;;9.48;72.72
13719;BME280;6931;51.100;17.068;2024-02-21T07:11:06;100481.28;;;9.22;73.41
13719;BME280;6931;51.100;17.068;2024-02-21T07:13:33;100481.41;;;9.36;73.51
13719;BME280;6931;51.100;17.068;2024-02-21T07:15:59;100486.25;;;9.06;74.13
13719;BME280;6931;51.100;17.068;2024-02-21T07:18:26;100479.28;;;9.19;74.24
13719;BME280;6931;51.100;17.068;2024-02-21T07:20:53;100474.28;;;9.39;74.26
13719;BME280;6931;51.100;17.068;2024-02-21T07:23:19;100482.63;;;8.98;75.03
13719;BME280;6931;51.100;17.068;2024-02-21T07:25:46;100474.78;;;9.11;76.91
13719;BME280;6931;51.100;17.068;2024-02-21T07:28:13;100475.38;;;8.90;76.74
13719;BME280;6931;51.100;17.068;2024-02-21T07:30:40;100473.88;;;9.37;75.97
13719;BME280;6931;51.100;17.068;2024-02-21T07:33:08;100439.31;;;8.97;77.26
13719;BME280;6931;51.100;17.068;2024-02-21T07:35:35;100468.78;;;9.02;77.52
13719;BME280;6931;51.100;17.068;2024-02-21T07:38:07;100468.63;;;8.88;77.58
13719;BME280;6931;51.100;17.068;2024-02-21T07:40:35;100438.00;;;8.84;78.23
13719;BME280;6931;51.100;17.068;2024-02-21T07:43:01;100470.97;;;8.86;79.22
13719;BME280;6931;51.100;17.068;2024-02-21T07:45:28;100455.63;;;8.99;79.23
13719;BME280;6931;51.100;17.068;2024-02-21T07:47:54;100462.69;;;8.89;79.48
13719;BME280;6931;51.100;17.068;2024-02-21T07:50:21;100460.41;;;8.98;80.00
13719;BME280;6931;51.100;17.068;2024-02-21T07:52:48;100466.06;;;9.12;80.58
13719;BME280;6931;51.100;17.068;2024-02-21T07:55:14;100455.53;;;8.92;79.16
13719;BME280;6931;51.100;17.068;2024-02-21T07:57:41;100451.38;;;9.08;80.01
13719;BME280;6931;51.100;17.068;2024-02-21T08:00:08;100449.03;;;9.14;79.60
13719;BME280;6931;51.100;17.068;2024-02-21T08:02:36;100445.78;;;9.49;78.39
13719;BME280;6931;51.100;17.068;2024-02-21T08:05:04;100454.78;;;9.35;77.89
13719;BME280;6931;51.100;17.068;2024-02-21T08:07:31;100446.72;;;9.23;79.12
13719;BME280;6931;51.100;17.068;2024-02-21T08:09:57;100451.69;;;9.44;78.46
13719;BME280;6931;51.100;17.068;2024-02-21T08:12:24;100445.22;;;9.33;77.90
13719;BME280;6931;51.100;17.068;2024-02-21T08:14:50;100427.91;;;9.06;77.96
13719;BME280;6931;51.100;17.068;2024-02-21T08:17:17;100439.06;;;9.53;77.42
13719;BME280;6931;51.100;17.068;2024-02-21T08:19:43;100401.41;;;9.15;78.52
13719;BME280;6931;51.100;17.068;2024-02-21T08:22:10;100439.66;;;9.29;78.29
13719;BME280;6931;51.100;17.068;2024-02-21T08:24:37;100442.72;;;9.17;77.91
13719;BME280;6931;51.100;17.068;2024-02-21T08:27:04;100442.31;;;9.18;78.30
13719;BME280;6931;51.100;17.068;2024-02-21T08:29:30;100427.44;;;9.44;77.04
13719;BME280;6931;51.100;17.068;2024-02-21T08:31:57;100431.78;;;9.38;77.99
13719;BME280;6931;51.100;17.068;2024-02-21T08:34:24;100435.66;;;9.30;77.47
13719;BME280;6931;51.100;17.068;2024-02-21T08:36:53;100433.88;;;9.52;78.01
13719;BME280;6931;51.100;17.068;2024-02-21T08:39:19;100425.53;;;9.52;77.34
13719;BME280;6931;51.100;17.068;2024-02-21T08:41:46;100435.53;;;10.14;77.24
13719;BME280;6931;51.100;17.068;2024-02-21T08:44:28;100415.81;;;9.82;78.38
13719;BME280;6931;51.100;17.068;2024-02-21T08:46:55;100411.03;;;9.79;79.21
13719;BME280;6931;51.100;17.068;2024-02-21T08:49:23;100401.75;;;9.61;78.69
13719;BME280;6931;51.100;17.068;2024-02-21T08:51:50;100430.13;;;9.84;79.66
13719;BME280;6931;51.100;17.068;2024-02-21T08:54:16;100424.75;;;10.09;78.34
13719;BME280;6931;51.100;17.068;2024-02-21T08:56:43;100412.84;;;9.58;78.93
13719;BME280;6931;51.100;17.068;2024-02-21T08:59:10;100417.41;;;9.83;78.96
13719;BME280;6931;51.100;17.068;2024-02-21T09:01:36;100419.78;;;9.81;78.83
13719;BME280;6931;51.100;17.068;2024-02-21T09:04:04;100429.03;;;9.99;78.75
13719;BME280;6931;51.100;17.068;2024-02-21T09:06:31;100428.97;;;9.92;79.25
13719;BME280;6931;51.100;17.068;2024-02-21T09:09:00;100414.47;;;9.59;79.37
13719;BME280;6931;51.100;17.068;2024-02-21T09:11:27;100399.59;;;9.98;79.79
13719;BME280;6931;51.100;17.068;2024-02-21T09:13:54;100412.06;;;10.18;78.24
13719;BME280;6931;51.100;17.068;2024-02-21T09:16:21;100416.25;;;9.88;78.62
13719;BME280;6931;51.100;17.068;2024-02-21T09:18:49;100408.38;;;10.00;77.13
13719;BME280;6931;51.100;17.068;2024-02-21T09:21:16;100408.38;;;10.00;76.62
13719;BME280;6931;51.100;17.068;2024-02-21T09:23:43;100418.50;;;9.72;76.86
13719;BME280;6931;51.100;17.068;2024-02-21T09:26:10;100407.53;;;9.96;76.92
13719;BME280;6931;51.100;17.068;2024-02-21T09:28:40;100389.84;;;10.29;76.66
13719;BME280;6931;51.100;17.068;2024-02-21T09:31:07;100406.25;;;10.59;75.61
13719;BME280;6931;51.100;17.068;2024-02-21T09:33:34;100409.47;;;10.61;75.42
13719;BME280;6931;51.100;17.068;2024-02-21T09:36:01;100408.78;;;10.02;76.26
13719;BME280;6931;51.100;17.068;2024-02-21T09:38:27;100388.00;;;10.68;75.05
13719;BME280;6931;51.100;17.068;2024-02-21T09:41:11;100387.66;;;11.29;73.24
13719;BME280;6931;51.100;17.068;2024-02-21T09:43:41;100411.06;;;10.65;76.19
13719;BME280;6931;51.100;17.068;2024-02-21T09:46:13;100383.94;;;10.45;76.51
13719;BME280;6931;51.100;17.068;2024-02-21T09:51:20;100378.47;;;10.80;75.61
13719;BME280;6931;51.100;17.068;2024-02-21T09:53:48;100382.44;;;10.86;76.14
13719;BME280;6931;51.100;17.068;2024-02-21T09:56:28;100393.22;;;10.87;76.70
13719;BME280;6931;51.100;17.068;2024-02-21T09:58:54;100366.44;;;10.58;77.79
13719;BME280;6931;51.100;17.068;2024-02-21T10:01:22;100385.59;;;10.60;76.20
13719;BME280;6931;51.100;17.068;2024-02-21T10:04:00;100376.50;;;10.87;75.97
13719;BME280;6931;51.100;17.068;2024-02-21T10:06:29;100400.00;;;11.00;75.64
13719;BME280;6931;51.100;17.068;2024-02-21T10:08:55;100396.88;;;10.05;77.11
13719;BME280;6931;51.100;17.068;2024-02-21T10:11:25;100391.81;;;10.25;76.79
13719;BME280;6931;51.100;17.068;2024-02-21T10:14:05;100381.69;;;9.96;77.46
13719;BME280;6931;51.100;17.068;2024-02-21T10:16:33;100397.00;;;10.26;77.34
13719;BME280;6931;51.100;17.068;2024-02-21T10:19:01;100396.13;;;10.12;77.61
13719;BME280;6931;51.100;17.068;2024-02-21T10:21:28;100377.56;;;10.41;76.51
13719;BME280;6931;51.100;17.068;2024-02-21T10:23:54;100403.91;;;10.71;75.30
13719;BME280;6931;51.100;17.068;2024-02-21T10:26:21;100385.50;;;10.35;76.60
13719;BME280;6931;51.100;17.068;2024-02-21T10:28:48;100397.13;;;10.65;76.36
13719;BME280;6931;51.100;17.068;2024-02-21T10:31:25;100400.66;;;10.52;76.05
13719;BME280;6931;51.100;17.068;2024-02-21T10:33:59;100399.44;;;10.42;76.21
13719;BME280;6931;51.100;17.068;2024-02-21T10:36:29;100395.72;;;10.13;76.22
13719;BME280;6931;51.100;17.068;2024-02-21T10:38:56;100408.53;;;10.32;76.62
13719;BME280;6931;51.100;17.068;2024-02-21T10:41:23;100380.66;;;10.18;76.63
13719;BME280;6931;51.100;17.068;2024-02-21T10:43:53;100398.44;;;10.06;76.77
13719;BME280;6931;51.100;17.068;2024-02-21T10:46:23;100394.56;;;10.18;76.30
13719;BME280;6931;51.100;17.068;2024-02-21T10:49:01;100383.13;;;10.41;76.31
13719;BME280;6931;51.100;17.068;2024-02-21T10:51:33;100374.44;;;10.74;74.88
13719;BME280;6931;51.100;17.068;2024-02-21T10:56:35;100362.69;;;10.08;75.61
13719;BME280;6931;51.100;17.068;2024-02-21T10:59:07;100357.19;;;10.22;77.01
13719;BME280;6931;51.100;17.068;2024-02-21T11:01:34;100345.75;;;10.45;75.81
13719;BME280;6931;51.100;17.068;2024-02-21T11:04:11;100342.63;;;10.78;75.14
13719;BME280;6931;51.100;17.068;2024-02-21T11:06:40;100344.56;;;10.53;74.71
13719;BME280;6931;51.100;17.068;2024-02-21T11:09:09;100320.31;;;10.68;74.85
13719;BME280;6931;51.100;17.068;2024-02-21T11:11:40;100331.78;;;10.34;76.00
13719;BME280;6931;51.100;17.068;2024-02-21T11:16:40;100332.13;;;10.15;75.46
13719;BME280;6931;51.100;17.068;2024-02-21T11:19:20;100346.09;;;10.29;75.43
13719;BME280;6931;51.100;17.068;2024-02-21T11:21:48;100297.16;;;10.21;74.70
13719;BME280;6931;51.100;17.068;2024-02-21T11:24:29;100328.69;;;10.68;75.45
13719;BME280;6931;51.100;17.068;2024-02-21T11:26:57;100326.31;;;10.77;75.04
13719;BME280;6931;51.100;17.068;2024-02-21T11:29:39;100294.84;;;10.80;74.22
13719;BME280;6931;51.100;17.068;2024-02-21T11:32:09;100298.31;;;10.24;74.77
13719;BME280;6931;51.100;17.068;2024-02-21T11:34:37;100306.38;;;10.61;75.36
13719;BME280;6931;51.100;17.068;2024-02-21T11:37:13;100301.19;;;11.43;73.79
13719;BME280;6931;51.100;17.068;2024-02-21T11:39:42;100301.50;;;11.88;71.28
13719;BME280;6931;51.100;17.068;2024-02-21T11:42:09;100278.81;;;11.57;71.48
13719;BME280;6931;51.100;17.068;2024-02-21T11:44:36;100303.16;;;11.64;72.11
13719;BME280;6931;51.100;17.068;2024-02-21T11:47:09;100270.56;;;10.63;73.61
13719;BME280;6931;51.100;17.068;2024-02-21T11:49:43;100295.63;;;11.33;73.52
13719;BME280;6931;51.100;17.068;2024-02-21T11:52:12;100288.44;;;11.39;71.85
13719;BME280;6931;51.100;17.068;2024-02-21T11:54:42;100298.38;;;11.54;72.52
13719;BME280;6931;51.100;17.068;2024-02-21T11:57:09;100289.06;;;11.99;71.07
13719;BME280;6931;51.100;17.068;2024-02-21T11:59:35;100292.88;;;10.80;73.24
13719;BME280;6931;51.100;17.068;2024-02-21T12:02:03;100273.72;;;11.17;72.92
13719;BME280;6931;51.100;17.068;2024-02-21T12:04:30;100271.69;;;11.49;71.46
13719;BME280;6931;51.100;17.068;2024-02-21T12:07:01;100287.66;;;10.93;74.20
13719;BME280;6931;51.100;17.068;2024-02-21T12:09:30;100283.31;;;11.02;73.67
13719;BME280;6931;51.100;17.068;2024-02-21T12:11:58;100282.50;;;10.88;73.86
13719;BME280;6931;51.100;17.068;2024-02-21T12:14:26;100256.91;;;11.67;71.08
13719;BME280;6931;51.100;17.068;2024-02-21T12:16:52;100240.56;;;11.62;71.20
13719;BME280;6931;51.100;17.068;2024-02-21T12:19:21;100244.13;;;11.62;70.89
13719;BME280;6931;51.100;17.068;2024-02-21T12:21:48;100248.00;;;11.96;70.66
13719;BME280;6931;51.100;17.068;2024-02-21T12:24:23;100240.22;;;12.32;68.72
13719;BME280;6931;51.100;17.068;2024-02-21T12:26:51;100256.25;;;12.21;69.94
13719;BME280;6931;51.100;17.068;2024-02-21T12:29:22;100244.88;;;12.52;68.36
13719;BME280;6931;51.100;17.068;2024-02-21T12:31:49;100243.34;;;12.44;68.31
13719;BME280;6931;51.100;17.068;2024-02-21T12:34:16;100240.41;;;11.97;70.30
13719;BME280;6931;51.100;17.068;2024-02-21T12:36:53;100234.59;;;11.56;70.44
13719;BME280;6931;51.100;17.068;2024-02-21T12:39:19;100234.03;;;12.03;70.51
13719;BME280;6931;51.100;17.068;2024-02-21T12:41:46;100240.78;;;12.06;69.91
13719;BME280;6931;51.100;17.068;2024-02-21T12:44:12;100228.97;;;11.74;69.50
13719;BME280;6931;51.100;17.068;2024-02-21T12:46:39;100211.44;;;11.66;69.65
13719;BME280;6931;51.100;17.068;2024-02-21T12:49:08;100214.94;;;11.91;70.75
13719;BME280;6931;51.100;17.068;2024-02-21T12:51:35;100215.50;;;12.30;70.68
13719;BME280;6931;51.100;17.068;2024-02-21T12:54:02;100203.44;;;11.79;70.41
13719;BME280;6931;51.100;17.068;2024-02-21T12:56:31;100198.31;;;11.67;67.98
13719;BME280;6931;51.100;17.068;2024-02-21T12:58:58;100202.66;;;11.71;66.49
13719;BME280;6931;51.100;17.068;2024-02-21T13:01:24;100187.06;;;11.81;66.39
13719;BME280;6931;51.100;17.068;2024-02-21T13:03:52;100188.56;;;11.99;65.26
13719;BME280;6931;51.100;17.068;2024-02-21T13:06:20;100193.41;;;11.88;65.33
13719;BME280;6931;51.100;17.068;2024-02-21T13:08:47;100191.47;;;12.88;64.33